Report METAR

 

LIPQ - Ronchi Legionari, Italy
Distance from station: SSO 4km
Dati ricevuti: 16/01/2018 16:20
Molto nuvoloso
Molto nuvoloso
 Vento da N
Vento: N 4 km/h
Temperatura: 5°C
P.to Rugiada: 4°C
Umidità: 93%
Barometro: 1006 hPa
Nuvole: Molto nuvoloso
Visibility: 7 km
Cloud details: Parz. nuvoloso 610 m
Molto nuvoloso 1524 m
2018/01/16 16:20 LIPQ 161620Z 36002KT 7000 SCT020 BKN050 05/04 Q1006
LIVT - Trieste, Italy
Distance from station: SE 27km
Dati ricevuti: 16/01/2018 15:55
Parz. nuvoloso
Parz. nuvoloso
 Vento da calmo
Vento: Calma
Temperatura: 7°C
P.to Rugiada: 5°C
Umidità: 87%
Barometro: 1006 hPa
Nuvole: Parz. nuvoloso
Visibility: 10 km
Cloud details: Few Clouds 244 m
Parz. nuvoloso 610 m
2018/01/16 15:55 LIVT 161555Z 00000KT 9999 FEW008 SCT020 07/05 Q1006 RMK OVC QUK 0 QUL 0 VIS MAR 10 KM VIS MIN 9999
 
LIPI - Rivolto (it-Afb), Italy
Distance from station: ONO 37km
Dati ricevuti: 16/01/2018 14:55
DATI Obsoleti
Mist, Nuvoloso
Mist, Nuvoloso
 Vento da Variabile
Vento: Variabile 0 km/h
Temperatura: 4°C
P.to Rugiada: 2°C
Umidità: 87%
Barometro: 1006 hPa
Summary: Mist
Nuvole: Molto nuvoloso
Visibility: 5 km
Cloud details: Few Clouds 762 m
Parz. nuvoloso 914 m
Molto nuvoloso 1524 m
2018/01/16 14:55 LIPI 161455Z /////KT 5000 BR FEW025 SCT030 BKN050 04/02 Q1006 RMK OVC VIS MIN 5000 WIND THR06 17003KT WIND THR24 15001KT WHT
LJPZ - Portoroz, Slovenia
Distance from station: SSE 43km
Dati ricevuti: 16/01/2018 16:30
Molto nuvoloso
Molto nuvoloso
 Vento da ONO
Vento: ONO 4 km/h
Temperatura: 6°C
P.to Rugiada: 5°C
Umidità: 93%
Barometro: 1006 hPa
Nuvole: Molto nuvoloso
Visibility: 10 km
Cloud details: Molto nuvoloso 457 m
2018/01/16 16:30 LJPZ 161630Z 30002KT 9999 BKN015 06/05 Q1006
 
LIPA - Aviano (it/Us-Af, Italy
Distance from station: ONO 73km
Dati ricevuti: 16/01/2018 15:55
Mist, Nuvoloso
Mist, Nuvoloso
 Vento da ENE
Vento: ENE 6 km/h
Temperatura: 5°C
P.to Rugiada: 3°C
Umidità: 87%
Barometro: 1006 hPa
Summary: Mist
Nuvole: Molto nuvoloso
Visibility: 4 km
Cloud details: Few Clouds 152 m
Molto nuvoloso 1067 m
2018/01/16 15:55 LIPA 161555Z 07003KT 4000 BR FEW005 BKN035 05/03 Q1006 RMK OVC VIS MIN 4000 WIND THR05 /////KT WIND THR23 /////KT A2972 GRN
LIVO - Tarvisio, Italy
Distance from station: N 73km
Dati ricevuti: 16/01/2018 15:55
Molto nuvoloso
Molto nuvoloso
 Vento da O
Vento: O 15 km/h
Temperatura: 2°C
Temperatura Vento: -2°C
P.to Rugiada: -1°C
Umidità: 81%
Barometro: 1001 hPa
Nuvole: Molto nuvoloso
Visibility: 10 km
Cloud details: Molto nuvoloso 610 m
2018/01/16 15:55 LIVO 161555Z 28008KT 9999 BKN020 02/M01 Q1001 RMK BKN VIS MIN 9999
 
LJLJ - Ljubljana/Brnik, Slovenia
Distance from station: ENE 86km
Dati ricevuti: 16/01/2018 16:30
Molto nuvoloso
Molto nuvoloso
 Vento da SO
Vento: SO 7 km/h
Temperatura: 4°C
Temperatura Vento: 2°C
P.to Rugiada: 2°C
Umidità: 87%
Barometro: 1003 hPa
Nuvole: Molto nuvoloso
Visibility: 10 km
Cloud details: Molto nuvoloso 792 m
2018/01/16 16:30 LJLJ 161630Z 22004KT 200V260 9999 BKN026 04/02 Q1003 NOSIG
LIPZ - Venezia/Tessera, Italy
Distance from station: OSO 96km
Dati ricevuti: 16/01/2018 16:50
Molto nuvoloso
Molto nuvoloso
 Vento da NE
Vento: NE 9 km/h
Temperatura: 5°C
Temperatura Vento: 3°C
P.to Rugiada: 3°C
Umidità: 87%
Barometro: 1006 hPa
Nuvole: Molto nuvoloso
Visibility: 6 km
Cloud details: Molto nuvoloso 305 m
2018/01/16 16:50 LIPZ 161650Z 05005KT 6000 BKN010 05/03 Q1006 NOSIG
 
LIPH - Treviso(Civ/It-A, Italy
Distance from station: OSO 105km
Dati ricevuti: 16/01/2018 16:50
Mist, Nuvoloso
Mist, Nuvoloso
 Vento da Variabile
Vento: Variabile 2 km/h
Temperatura: 5°C
P.to Rugiada: 3°C
Umidità: 87%
Barometro: 1006 hPa
Summary: Mist
Nuvole: Molto nuvoloso
Visibility: 3 km
Cloud details: Molto nuvoloso 305 m
2018/01/16 16:50 LIPH 161650Z VRB01KT 3000 BR BKN010 05/03 Q1006
LDRI - Rijeka/Omisalj, Croatia
Distance from station: SE 109km
Dati ricevuti: 16/01/2018 16:30
Coperto
Coperto
 Vento da SSE
Vento: SSE 6 km/h
Temperatura: 9°C
P.to Rugiada: 7°C
Umidità: 87%
Barometro: 1006 hPa
Nuvole: Coperto
Visibility: 10 km
Cloud details: Few Clouds 213 m
Molto nuvoloso 823 m
Coperto 1219 m
2018/01/16 16:30 LDRI 161630Z 16003KT 9999 FEW007 BKN027 OVC040 09/07 Q1006
 
LOWK - Klagenfurt(Civ/M, Austria
Distance from station: NE 110km
Dati ricevuti: 16/01/2018 16:50
Parz. nuvoloso
Parz. nuvoloso
 Vento da Variabile
Vento: Variabile 4 km/h
Temperatura: 2°C
P.to Rugiada: -1°C
Umidità: 81%
Barometro: 1001 hPa
Nuvole: Parz. nuvoloso
Visibility: 10 km
Cloud details: Few Clouds 1372 m
Parz. nuvoloso 4572 m
2018/01/16 16:50 LOWK 161650Z VRB02KT 9999 FEW045 SCT150 02/M01 Q1001 NOSIG
LIPS - Istrana (it-Afb), Italy
Distance from station: O 111km
Dati ricevuti: 16/01/2018 15:55
Mist, Nuvoloso
Mist, Nuvoloso
 Vento da E
Vento: E 4 km/h
Temperatura: 5°C
P.to Rugiada: 4°C
Umidità: 93%
Barometro: 1006 hPa
Summary: Mist
Nuvole: Molto nuvoloso
Visibility: 3 km
Cloud details: Molto nuvoloso 305 m
Molto nuvoloso 610 m
2018/01/16 15:55 LIPS 161555Z 09002KT 3000 BR BKN010 BKN020 05/04 Q1006 RMK OVC VIS MIN 3000 WIND THR26 00000KT WIND THR08 07002KT YLO
 
LDPL - Pula, Croatia
Distance from station: SSE 112km
Dati ricevuti: 16/01/2018 16:30
Coperto
Coperto
 Vento da Variabile
Vento: Variabile 4 km/h
Temperatura: 8°C
P.to Rugiada: 7°C
Umidità: 93%
Barometro: 1005 hPa
Nuvole: Coperto
Visibility: 10 km
Cloud details: Molto nuvoloso 914 m
Coperto 1372 m
2018/01/16 16:30 LDPL 161630Z VRB02KT 9999 BKN030 OVC045 08/07 Q1005 NOSIG
LIVD - Dobbiaco, Italy
Distance from station: NO 138km
Dati ricevuti: 16/01/2018 15:55
Molto nuvoloso
Molto nuvoloso
 Vento da ONO
Vento: ONO 4 km/h
Temperatura: 0°C
P.to Rugiada: -4°C
Umidità: 75%
Barometro: 1002 hPa
Nuvole: Molto nuvoloso
Visibility: 10 km
Cloud details: Molto nuvoloso 610 m
2018/01/16 15:55 LIVD 161555Z 29002KT 9999 BKN020 00/M04 Q1002 RMK BKN VIS MIN 9999
 
LIPU - Padova (civ/It-A, Italy
Distance from station: OSO 139km
Dati ricevuti: 16/01/2018 07:00
DATI Obsoleti
Mist, Nuvoloso
Mist, Nuvoloso
 Vento da Variabile
Vento: Variabile 4 km/h
Temperatura: 3°C
P.to Rugiada: 3°C
Umidità: 100%
Barometro: 1011 hPa
Summary: Mist
Nuvole: Molto nuvoloso
Visibility: 4 km
Cloud details: Molto nuvoloso 1067 m
2018/01/16 07:00 LIPU 160700Z VRB02KT 4000 BR BKN035 03/03 Q1011
LIVR - Rolle Pass, Italy
Distance from station: ONO 142km
Dati ricevuti: 16/01/2018 15:55
Few Clouds
Few Clouds
 Vento da NE
Vento: NE 17 km/h
Temperatura: -4°C
Temperatura Vento: -9°C
P.to Rugiada: -5°C
Umidità: 93%
Barometro: 998 hPa
Nuvole: Few Clouds
Visibility: 10 km
Cloud details: Few Clouds 305 m
2018/01/16 15:55 LIVR 161555Z 05009KT 9999 FEW010 M04/M05 Q0998 RMK FEW MON LIB VIS MIN 9999
 
LJCE - Cerklje, Slovenia
Distance from station: E 157km
Dati ricevuti: 16/01/2018 16:30
Parz. nuvoloso
Parz. nuvoloso
 Vento da O
Vento: O 9 km/h
Temperatura: 7°C
Temperatura Vento: 6°C
P.to Rugiada: 4°C
Umidità: 81%
Barometro: 1003 hPa
Nuvole: Parz. nuvoloso
Visibility: 10 km
2018/01/16 16:30 LJCE 161630Z AUTO 26005KT 9999 NSC 07/04 Q1003
LDLO - Losinj Island, Croatia
Distance from station: SSE 159km
Dati ricevuti: 08/01/2018 15:00
DATI Obsoleti
Parz. nuvoloso
Parz. nuvoloso
 Vento da SE
Vento: SE 26 km/h
Temperatura: 15°C
P.to Rugiada: 12°C
Umidità: 82%
Barometro: 1023 hPa
Nuvole: Parz. nuvoloso
Visibility: 10 km
Cloud details: Parz. nuvoloso 1219 m
2018/01/08 15:00 LDLO 081500Z 14014KT 9999 SCT040 15/12 Q1023
 
LOXZ - Zeltweg (mil), Austria
Distance from station: NNE 179km
Dati ricevuti: 16/01/2018 16:50
Coperto
Coperto
 Vento da O
Vento: O 15 km/h
Temperatura: 3°C
Temperatura Vento: -1°C
P.to Rugiada: -2°C
Umidità: 70%
Barometro: 998 hPa
Nuvole: Coperto
Cloud details: Few Clouds 1219 m
Coperto 2438 m
2018/01/16 16:50 LOXZ 161650Z 26008KT 20KM FEW040SC OVC080AC 03/M02 Q0998 NOSIG
LIPB - Bolzano(Civ/It-A, Italy
Distance from station: ONO 181km
Dati ricevuti: 16/01/2018 16:50
Coperto
Coperto
 Vento da Variabile
Vento: Variabile 2 km/h
Temperatura: 3°C
P.to Rugiada: -1°C
Umidità: 75%
Barometro: 1005 hPa
Nuvole: Coperto
Visibility: 10 km
Cloud details: Few Clouds 1524 m
Molto nuvoloso 1829 m
Coperto 3048 m
2018/01/16 16:50 LIPB 161650Z VRB01KT 9999 FEW050 BKN060 OVC100 03/M01 Q1005